Time;durP1;ratioP1;P1;durP2;ratioP2;P2;SDS_P1;SDS_P2;PMS_P1;PMS_P2;Temp;Humidity;BMP_temperature;BMP_pressure;BME280_temperature;BME280_humidity;BME280_pressure;Samples;Min_cycle;Max_cycle;Signal;HPM_P1;HPM_P2
2023/07/18 00:00:10;;;;;;;12.73;11.50;;;;;;;23.33;93.03;64418.28;5064561;27;20209;-84
2023/07/18 00:02:39;;;;;;;11.50;10.50;;;;;;;23.21;93.44;64405.69;5051961;27;20228;-84
2023/07/18 00:05:11;;;;;;;13.18;10.55;;;;;;;23.25;93.22;64409.88;5062629;28;20245;-84
2023/07/18 00:07:39;;;;;;;14.65;10.93;;;;;;;23.08;93.84;64389.50;5066852;27;20217;-84
2023/07/18 00:10:10;;;;;;;12.05;10.85;;;;;;;23.01;95.77;64384.25;5058557;27;20404;-86
2023/07/18 00:12:38;;;;;;;15.85;12.85;;;;;;;23.04;95.04;64384.81;5057231;28;20266;-84
2023/07/18 00:15:07;;;;;;;12.60;11.32;;;;;;;23.10;95.64;64388.47;5066747;28;20193;-84
2023/07/18 00:17:34;;;;;;;12.32;11.18;;;;;;;23.16;94.00;64400.47;5069075;28;20209;-84
2023/07/18 00:20:04;;;;;;;12.02;10.82;;;;;;;23.20;93.56;64406.72;5047623;27;20225;-84
2023/07/18 00:22:31;;;;;;;12.98;10.65;;;;;;;23.17;93.64;64404.13;5048515;27;20282;-84
2023/07/18 00:25:00;;;;;;;12.52;11.27;;;;;;;23.20;93.50;64407.25;5062275;28;20265;-86
2023/07/18 00:27:28;;;;;;;11.32;10.32;;;;;;;23.12;94.17;64396.31;5065639;27;20201;-85
2023/07/18 00:29:59;;;;;;;12.70;11.40;;;;;;;23.16;94.40;64405.66;5066422;27;20193;-83
2023/07/18 00:32:26;;;;;;;12.82;11.52;;;;;;;23.15;94.61;64401.50;5070489;28;20221;-85
2023/07/18 00:34:56;;;;;;;12.45;11.20;;;;;;;23.13;94.80;64392.13;5067844;27;20265;-85
2023/07/18 00:37:23;;;;;;;13.25;11.90;;;;;;;23.15;95.78;64406.69;5055854;27;20220;-84
2023/07/18 00:39:51;;;;;;;12.65;11.38;;;;;;;23.13;95.03;64396.81;5063083;28;20213;-83
2023/07/18 00:42:18;;;;;;;11.20;10.15;;;;;;;23.06;94.70;64392.09;5129689;27;20228;-84
2023/07/18 00:44:51;;;;;;;12.73;11.50;;;;;;;23.09;94.75;64398.34;5172434;27;20240;-83
2023/07/18 00:47:19;;;;;;;12.45;11.02;;;;;;;23.18;94.61;64402.03;5048050;27;20221;-84
2023/07/18 00:49:47;;;;;;;12.18;10.98;;;;;;;23.11;94.22;64395.25;5063066;28;20249;-83
2023/07/18 00:52:17;;;;;;;15.63;11.68;;;;;;;23.23;94.08;64407.78;5066571;28;20232;-82
2023/07/18 00:54:45;;;;;;;12.85;11.55;;;;;;;23.10;94.54;64396.81;5060214;27;20221;-84
2023/07/18 00:57:15;;;;;;;11.93;10.85;;;;;;;23.10;94.52;64391.06;5049261;28;20206;-84
2023/07/18 00:59:47;;;;;;;12.98;11.63;;;;;;;22.95;94.26;64378.00;5049684;27;20196;-85
2023/07/18 01:02:15;;;;;;;12.77;11.57;;;;;;;23.09;94.34;64390.03;5066729;28;20216;-83
2023/07/18 01:04:42;;;;;;;12.88;11.63;;;;;;;23.05;94.92;64391.56;5069122;27;20250;-84
2023/07/18 01:07:10;;;;;;;14.35;12.05;;;;;;;22.97;94.43;64380.09;5069092;28;20225;-84
2023/07/18 01:09:37;;;;;;;15.25;11.32;;;;;;;23.01;94.27;64386.84;5067033;27;20411;-84
2023/07/18 01:12:06;;;;;;;12.38;11.27;;;;;;;23.11;94.99;64397.34;5065485;28;20295;-82
2023/07/18 01:14:33;;;;;;;12.65;11.50;;;;;;;23.01;95.55;64384.25;5049290;27;20258;-83
2023/07/18 01:17:03;;;;;;;13.15;11.95;;;;;;;22.87;95.12;64370.13;5049585;28;20224;-85
2023/07/18 01:19:31;;;;;;;15.15;12.15;;;;;;;22.98;95.20;64386.84;5056216;28;20409;-84
2023/07/18 01:22:02;;;;;;;14.80;11.75;;;;;;;23.05;94.23;64388.97;5059235;28;20284;-83
2023/07/18 01:24:32;;;;;;;15.23;12.05;;;;;;;22.74;95.82;64359.16;5060049;27;20268;-84
2023/07/18 01:26:59;;;;;;;14.15;12.73;;;;;;;22.88;95.88;64371.72;5072305;27;20213;-82
2023/07/18 01:29:26;;;;;;;14.00;12.65;;;;;;;22.82;95.59;64365.44;5071810;28;20207;-82
2023/07/18 01:31:53;;;;;;;12.98;11.73;;;;;;;22.88;96.51;64373.78;5069239;27;20234;-82
2023/07/18 01:34:20;;;;;;;14.93;13.20;;;;;;;22.83;97.52;64365.97;5054114;27;20196;-84
2023/07/18 01:36:47;;;;;;;14.65;13.18;;;;;;;22.72;96.89;64357.06;5051851;27;20282;-83
2023/07/18 01:39:16;;;;;;;14.40;13.02;;;;;;;22.80;97.22;64365.94;5050607;28;20198;-84
2023/07/18 01:41:43;;;;;;;13.65;12.15;;;;;;;22.89;95.99;64374.84;5068497;28;20217;-83
2023/07/18 01:44:12;;;;;;;13.80;12.38;;;;;;;22.84;95.68;64370.13;5049876;28;20219;-83
2023/07/18 01:46:39;;;;;;;14.10;12.73;;;;;;;22.76;95.43;64359.16;5051947;28;20229;-85
2023/07/18 01:49:08;;;;;;;14.27;12.93;;;;;;;22.87;95.90;64373.28;5051901;28;20224;-82
2023/07/18 01:51:37;;;;;;;15.60;11.73;;;;;;;22.89;95.56;64377.44;5050485;27;20233;-83
2023/07/18 01:54:05;;;;;;;14.70;12.05;;;;;;;22.76;95.33;64359.16;5054834;27;20205;-85
2023/07/18 01:56:33;;;;;;;13.75;11.57;;;;;;;22.90;95.43;64381.06;5051201;28;20217;-82
2023/07/18 01:59:02;;;;;;;13.32;11.80;;;;;;;22.88;94.98;64373.78;5048028;27;20301;-83
2023/07/18 02:01:28;;;;;;;13.15;11.80;;;;;;;22.69;94.69;64351.84;5051334;28;20217;-84
2023/07/18 02:03:55;;;;;;;14.35;12.85;;;;;;;22.68;96.66;64350.81;5052081;27;20205;-83
2023/07/18 02:06:24;;;;;;;12.48;11.30;;;;;;;22.75;96.91;64360.19;5068425;27;20252;-83
2023/07/18 02:08:52;;;;;;;13.90;12.50;;;;;;;22.80;96.24;64360.75;5067463;27;20439;-82
2023/07/18 02:11:19;;;;;;;13.07;11.75;;;;;;;22.59;96.01;64346.06;5049859;28;20213;-84
2023/07/18 02:13:48;;;;;;;13.55;12.25;;;;;;;22.80;95.86;64365.41;5060131;28;20201;-84
2023/07/18 02:16:15;;;;;;;14.30;12.85;;;;;;;22.75;95.35;64357.59;5067474;27;20221;-83
2023/07/18 02:18:43;;;;;;;13.57;12.30;;;;;;;22.68;95.59;64353.41;5062684;27;20209;-84
2023/07/18 02:21:12;;;;;;;14.85;11.95;;;;;;;22.56;95.58;64338.25;5051595;27;20218;-84
2023/07/18 02:23:40;;;;;;;13.57;12.25;;;;;;;22.61;96.11;64343.47;5050677;28;20201;-83
2023/07/18 02:26:08;;;;;;;12.82;11.40;;;;;;;22.67;96.57;64346.63;5055947;27;20242;-82
2023/07/18 02:28:36;;;;;;;15.63;12.80;;;;;;;22.48;97.01;64329.34;5069996;27;20185;-86
2023/07/18 02:31:04;;;;;;;14.07;12.50;;;;;;;22.58;96.93;64345.53;5071357;28;20217;-84
2023/07/18 02:33:31;;;;;;;12.50;11.32;;;;;;;22.41;96.76;64325.16;5069603;27;20189;-84
2023/07/18 02:35:59;;;;;;;14.30;12.75;;;;;;;22.55;96.66;64336.69;5068346;28;20232;-83
2023/07/18 02:38:26;;;;;;;13.65;11.55;;;;;;;22.46;96.64;64327.25;5068764;27;20227;-83
2023/07/18 02:40:53;;;;;;;12.32;11.10;;;;;;;22.36;96.56;64317.34;5068331;27;20244;-83
2023/07/18 02:43:20;;;;;;;13.15;11.80;;;;;;;22.34;97.27;64317.84;5174934;27;20256;-82
2023/07/18 02:45:48;;;;;;;13.48;12.18;;;;;;;22.38;97.51;64322.00;5086073;27;20245;-83
2023/07/18 02:48:17;;;;;;;14.45;12.93;;;;;;;22.31;98.81;64317.28;5175725;27;20193;-85
2023/07/18 02:50:44;;;;;;;13.13;11.45;;;;;;;22.32;99.41;64312.63;5083840;27;20217;-83
2023/07/18 02:53:12;;;;;;;14.85;12.38;;;;;;;22.30;99.66;64313.66;5070547;27;20268;-84
2023/07/18 02:55:39;;;;;;;15.95;12.27;;;;;;;22.32;100.00;64310.03;5054471;27;20221;-85
2023/07/18 02:58:06;;;;;;;13.05;11.77;;;;;;;22.19;99.50;64301.63;5065146;28;20201;-85
2023/07/18 03:00:33;;;;;;;13.57;12.18;;;;;;;22.28;98.80;64308.44;5134712;27;20501;-84
2023/07/18 03:03:01;;;;;;;16.88;12.55;;;;;;;22.20;98.75;64300.59;5068732;28;20193;-83
2023/07/18 03:05:33;;;;;;;13.18;12.00;;;;;;;22.22;99.38;64294.38;5069087;28;20287;-81
2023/07/18 03:08:00;;;;;;;12.38;11.35;;;;;;;22.12;100.00;64294.31;5062040;28;20197;-83
2023/07/18 03:10:27;;;;;;;12.93;11.73;;;;;;;22.19;99.93;64299.03;5150087;27;20197;-83
2023/07/18 03:12:54;;;;;;;14.23;11.73;;;;;;;22.09;100.00;64289.09;5174048;27;20181;-85
2023/07/18 03:15:23;;;;;;;12.68;11.48;;;;;;;22.09;100.00;64293.78;5090780;27;20263;-83
2023/07/18 03:17:50;;;;;;;13.40;12.20;;;;;;;21.98;100.00;64279.69;5067059;28;20528;-82
2023/07/18 03:20:19;;;;;;;13.60;12.10;;;;;;;22.11;100.00;64293.25;5069732;27;20272;-85
2023/07/18 03:22:49;;;;;;;13.55;12.15;;;;;;;22.08;100.00;64290.66;5070640;28;20224;-82
2023/07/18 03:25:19;;;;;;;14.15;12.23;;;;;;;21.98;100.00;64280.22;5066036;28;20204;-85
2023/07/18 03:27:47;;;;;;;13.52;12.23;;;;;;;22.17;100.00;64296.94;5048399;28;20217;-82
2023/07/18 03:30:14;;;;;;;14.65;12.23;;;;;;;22.04;100.00;64291.16;5054550;28;20470;-84
2023/07/18 03:32:42;;;;;;;12.95;11.85;;;;;;;22.20;100.00;64305.78;5069760;28;20219;-84
2023/07/18 03:35:10;;;;;;;13.23;11.52;;;;;;;22.19;100.00;64302.16;5065983;28;20271;-81
2023/07/18 03:37:38;;;;;;;14.05;11.65;;;;;;;22.17;100.00;64300.06;5067602;27;20220;-82
2023/07/18 03:40:09;;;;;;;13.40;12.05;;;;;;;22.25;100.00;64303.22;5069104;28;20209;-82
2023/07/18 03:42:37;;;;;;;13.60;12.15;;;;;;;22.26;100.00;64311.53;5139994;27;20273;-82
2023/07/18 03:45:06;;;;;;;12.63;11.38;;;;;;;22.35;100.00;64321.47;5071034;27;20422;-84
2023/07/18 03:47:33;;;;;;;13.35;12.07;;;;;;;22.37;100.00;64315.25;5046792;28;20305;-81
2023/07/18 03:50:00;;;;;;;14.35;12.98;;;;;;;22.38;100.00;64318.91;5049714;28;20502;-84
2023/07/18 03:52:27;;;;;;;14.23;12.77;;;;;;;22.40;100.00;64321.00;5050668;28;20227;-81
2023/07/18 03:54:55;;;;;;;13.25;11.95;;;;;;;22.52;100.00;64331.44;5069979;27;20557;-83
2023/07/18 03:57:23;;;;;;;13.07;11.88;;;;;;;22.48;100.00;64331.94;5066055;28;20237;-83
2023/07/18 03:59:50;;;;;;;14.90;13.43;;;;;;;22.62;100.00;64344.00;5060993;28;20225;-82
2023/07/18 04:02:18;;;;;;;16.67;13.35;;;;;;;22.63;100.00;64342.44;5046859;28;20233;-83
2023/07/18 04:04:45;;;;;;;16.20;14.48;;;;;;;22.74;100.00;64359.66;5048510;28;20374;-82
2023/07/18 04:07:11;;;;;;;14.93;13.32;;;;;;;22.63;100.00;64347.63;5047318;28;20542;-82
2023/07/18 04:09:39;;;;;;;16.73;14.43;;;;;;;22.78;100.00;64361.25;5065879;28;20201;-79
2023/07/18 04:12:07;;;;;;;16.90;14.77;;;;;;;22.66;100.00;64348.19;5053176;28;20221;-83
2023/07/18 04:14:39;;;;;;;17.25;15.48;;;;;;;22.62;100.00;64346.59;5046724;28;20421;-83
2023/07/18 04:17:07;;;;;;;20.95;15.55;;;;;;;22.57;100.00;64343.97;5047906;27;20225;-81
2023/07/18 04:19:34;;;;;;;17.50;15.70;;;;;;;22.73;100.00;64356.03;5049767;28;20205;-83
2023/07/18 04:22:01;;;;;;;18.73;16.27;;;;;;;22.64;100.00;64349.22;5067405;27;20238;-85
2023/07/18 04:24:28;;;;;;;20.33;15.38;;;;;;;22.74;100.00;64359.16;5066523;28;20201;-82
2023/07/18 04:26:55;;;;;;;19.05;15.63;;;;;;;22.78;100.00;64366.44;5071691;27;20220;-80
2023/07/18 04:29:24;;;;;;;18.40;15.13;;;;;;;;;;5057106;28;20197;-82
2023/07/18 04:31:53;;;;;;;22.08;16.27;;;;;;;22.98;100.00;64383.72;5046942;28;20412;-80
2023/07/18 04:34:20;;;;;;;16.33;14.50;;;;;;;23.10;100.00;64391.06;5052659;27;20219;-80
2023/07/18 04:36:47;;;;;;;17.83;15.88;;;;;;;23.16;100.00;64400.47;5067225;27;20217;-82
2023/07/18 04:39:15;;;;;;;17.63;15.70;;;;;;;23.29;100.00;64411.50;5066486;28;20268;-80
2023/07/18 04:41:41;;;;;;;15.38;13.85;;;;;;;23.29;100.00;64416.69;5067508;27;20224;-83
2023/07/18 04:44:09;;;;;;;18.27;15.00;;;;;;;23.07;100.00;64396.28;5070762;27;20207;-82
2023/07/18 04:46:36;;;;;;;17.10;14.82;;;;;;;23.42;100.00;64432.88;5069003;27;20229;-83
2023/07/18 04:49:05;;;;;;;18.85;16.08;;;;;;;23.29;100.00;64411.50;5065557;28;20204;-81
2023/07/18 04:51:32;;;;;;;20.45;16.20;;;;;;;23.58;100.00;64443.91;5067451;28;20269;-81
2023/07/18 04:53:59;;;;;;;17.05;14.98;;;;;;;23.73;100.00;64460.13;5060163;28;20203;-85
2023/07/18 04:56:26;;;;;;;16.30;14.70;;;;;;;23.92;100.00;64482.63;5047608;28;20217;-83
2023/07/18 04:58:54;;;;;;;20.15;14.65;;;;;;;23.98;100.00;64486.31;5048679;28;20206;-81
2023/07/18 05:01:23;;;;;;;21.88;14.90;;;;;;;24.14;100.00;64502.53;5053762;27;20231;-83
2023/07/18 05:03:50;;;;;;;17.40;15.57;;;;;;;24.19;100.00;64510.38;5066456;27;20422;-84
2023/07/18 05:06:19;;;;;;;19.00;14.57;;;;;;;24.23;100.00;64511.44;5066696;27;20232;-84
2023/07/18 05:08:46;;;;;;;19.42;15.45;;;;;;;24.34;100.00;64523.47;5066184;27;20550;-81
2023/07/18 05:11:13;;;;;;;18.00;14.45;;;;;;;24.20;100.00;64510.88;5057243;27;20224;-81
2023/07/18 05:13:40;;;;;;;16.15;14.45;;;;;;;24.35;100.00;64521.91;5047958;28;20216;-81
2023/07/18 05:16:07;;;;;;;22.13;16.10;;;;;;;24.46;100.00;64540.72;5046896;28;20209;-82
2023/07/18 05:18:34;;;;;;;19.85;15.15;;;;;;;24.59;100.00;64549.13;5044697;27;20197;-82
2023/07/18 05:21:01;;;;;;;20.25;16.45;;;;;;;24.87;98.27;64584.22;5064612;28;20227;-83
2023/07/18 05:23:30;;;;;;;18.77;16.13;;;;;;;24.91;96.88;64582.66;5067189;27;20220;-80
2023/07/18 05:25:57;;;;;;;18.58;15.13;;;;;;;24.90;96.11;64582.13;5064885;27;20213;-82
2023/07/18 05:28:28;;;;;;;18.85;15.40;;;;;;;25.08;94.89;64601.00;5061844;28;20216;-81
2023/07/18 05:30:55;;;;;;;22.05;15.68;;;;;;;25.20;94.48;64615.63;5065923;28;20216;-83
2023/07/18 05:33:23;;;;;;;15.90;13.55;;;;;;;25.32;93.81;64630.81;5067298;27;20444;-83
2023/07/18 05:35:50;;;;;;;17.55;14.77;;;;;;;25.43;90.56;64639.78;5065648;28;20249;-83
2023/07/18 05:38:17;;;;;;;15.50;13.85;;;;;;;25.49;91.41;64643.44;5067180;27;20201;-81
2023/07/18 05:40:46;;;;;;;17.20;15.20;;;;;;;25.46;86.09;64639.78;5065617;27;20216;-83
2023/07/18 05:43:13;;;;;;;20.88;14.10;;;;;;;25.69;86.45;64667.00;5167095;27;20212;-84
2023/07/18 05:45:40;;;;;;;19.63;15.52;;;;;;;25.62;89.44;64653.94;5170607;27;20190;-84
2023/07/18 05:48:07;;;;;;;17.50;15.52;;;;;;;25.72;88.78;64667.53;5065013;27;20240;-83
2023/07/18 05:50:34;;;;;;;19.75;14.20;;;;;;;25.85;87.24;64685.88;5045825;28;20371;-83
2023/07/18 05:53:01;;;;;;;17.77;15.07;;;;;;;25.89;86.66;64690.59;5045330;28;20231;-81
2023/07/18 05:55:28;;;;;;;17.65;14.73;;;;;;;25.81;84.11;64671.75;5050258;28;20232;-84
2023/07/18 05:57:57;;;;;;;21.85;14.48;;;;;;;26.03;84.25;64700.06;5065634;27;20215;-82
2023/07/18 06:00:24;;;;;;;20.80;14.20;;;;;;;25.91;78.96;64692.69;5064483;27;20197;-83
2023/07/18 06:02:51;;;;;;;19.40;15.13;;;;;;;25.98;80.64;64696.88;5064915;27;20204;-81
2023/07/18 06:05:19;;;;;;;17.17;15.13;;;;;;;26.07;82.72;64703.72;5049690;27;20262;-83
2023/07/18 06:07:46;;;;;;;16.08;14.38;;;;;;;25.80;80.50;64675.91;5050287;27;20250;-81
2023/07/18 06:10:13;;;;;;;22.63;15.00;;;;;;;26.28;78.13;64730.97;5064365;27;20486;-82
2023/07/18 06:12:40;;;;;;;16.95;14.30;;;;;;;26.46;76.70;64749.31;5066362;28;20233;-83
2023/07/18 06:15:10;;;;;;;20.65;14.45;;;;;;;26.70;75.52;64769.28;5054275;28;20208;-82
2023/07/18 06:17:37;;;;;;;18.73;14.30;;;;;;;26.74;73.93;64776.09;5048722;27;20661;-83
2023/07/18 06:20:09;;;;;;;19.23;13.27;;;;;;;26.83;72.61;64782.91;5050241;27;20197;-82
2023/07/18 06:22:35;;;;;;;16.52;14.15;;;;;;;26.91;73.15;64791.31;5049462;28;20217;-80
2023/07/18 06:25:02;;;;;;;15.48;13.45;;;;;;;26.82;71.97;64784.47;5068922;27;20201;-82
2023/07/18 06:27:31;;;;;;;23.58;14.30;;;;;;;26.91;72.03;64788.69;5056298;28;20229;-83
2023/07/18 06:29:58;;;;;;;16.85;13.90;;;;;;;27.04;72.57;64807.56;5047706;28;20262;-83
2023/07/18 06:32:28;;;;;;;16.15;13.98;;;;;;;27.02;73.64;64803.38;5049835;28;20221;-81
2023/07/18 06:34:56;;;;;;;21.92;13.98;;;;;;;26.98;69.28;64801.25;5048877;28;20344;-83
2023/07/18 06:37:24;;;;;;;18.25;14.80;;;;;;;26.92;70.82;64792.88;5049082;28;20217;-82
2023/07/18 06:39:51;;;;;;;20.17;14.75;;;;;;;26.94;69.87;64797.59;5047058;28;20198;-79
2023/07/18 06:42:18;;;;;;;17.83;14.40;;;;;;;26.86;70.73;64788.66;5063736;28;20592;-83
2023/07/18 06:44:46;;;;;;;24.23;15.20;;;;;;;26.86;74.51;64786.59;5065934;28;20197;-85
2023/07/18 06:47:14;;;;;;;18.38;15.27;;;;;;;27.01;73.65;64801.78;5066784;28;20532;-82
2023/07/18 06:49:43;;;;;;;21.45;16.35;;;;;;;27.12;72.17;64818.56;5065779;27;20197;-82
2023/07/18 06:52:10;;;;;;;19.92;15.35;;;;;;;27.31;73.93;64830.66;5048576;28;20225;-82
2023/07/18 06:54:37;;;;;;;24.67;15.52;;;;;;;27.43;73.08;64851.09;5063403;28;20486;-82
2023/07/18 06:57:04;;;;;;;18.10;15.55;;;;;;;27.37;71.48;64842.19;5068857;28;20219;-81
2023/07/18 06:59:31;;;;;;;18.48;14.82;;;;;;;27.43;70.89;64848.50;5064900;27;20205;-82
2023/07/18 07:01:58;;;;;;;18.95;15.98;;;;;;;27.61;70.37;64864.25;5066815;27;20240;-79
2023/07/18 07:04:26;;;;;;;19.20;15.85;;;;;;;27.66;69.35;64867.41;5049430;27;20391;-82
2023/07/18 07:06:55;;;;;;;21.88;15.88;;;;;;;27.93;67.57;64900.47;5047257;28;20229;-84
2023/07/18 07:09:24;;;;;;;17.83;15.52;;;;;;;27.96;66.26;64903.59;5057865;27;20257;-80
2023/07/18 07:11:51;;;;;;;20.50;16.63;;;;;;;27.48;66.65;64851.13;5064486;27;20251;-80
2023/07/18 07:14:21;;;;;;;18.75;16.25;;;;;;;27.51;67.33;64854.25;5066709;27;20197;-82
2023/07/18 07:16:47;;;;;;;16.80;14.88;;;;;;;27.87;66.56;64894.16;5064296;27;20280;-82
2023/07/18 07:19:14;;;;;;;18.88;15.50;;;;;;;28.08;65.42;64918.81;5048034;28;20197;-80
2023/07/18 07:21:42;;;;;;;19.00;16.30;;;;;;;27.97;65.79;64902.59;5048708;27;20217;-82
2023/07/18 07:24:10;;;;;;;17.25;15.30;;;;;;;28.21;66.07;64929.88;5047355;28;20194;-82
2023/07/18 07:26:38;;;;;;;20.92;15.57;;;;;;;28.40;64.15;64947.72;5050784;28;20225;-82
2023/07/18 07:29:07;;;;;;;18.27;15.80;;;;;;;28.50;64.13;64955.06;5066155;28;20206;-79
2023/07/18 07:31:33;;;;;;;19.15;16.67;;;;;;;28.39;65.04;64946.66;5046970;28;20237;-80
2023/07/18 07:34:01;;;;;;;23.45;16.55;;;;;;;28.26;66.58;64929.88;5044703;28;20256;-82
2023/07/18 07:36:29;;;;;;;25.17;16.00;;;;;;;28.26;66.14;64930.41;5059877;27;20209;-81
2023/07/18 07:38:56;;;;;;;23.25;16.35;;;;;;;28.48;66.17;64960.31;5074649;27;20197;-82
2023/07/18 07:41:25;;;;;;;20.48;15.88;;;;;;;28.38;65.21;64950.34;5065805;27;20220;-81
2023/07/18 07:43:52;;;;;;;18.13;14.75;;;;;;;28.31;65.80;64937.75;5064619;27;20204;-81
2023/07/18 07:46:19;;;;;;;17.08;14.57;;;;;;;28.56;67.06;64960.88;5054055;28;20225;-81
2023/07/18 07:48:46;;;;;;;21.83;15.50;;;;;;;28.70;65.68;64978.19;5051386;28;20225;-80
2023/07/18 07:51:15;;;;;;;18.95;15.32;;;;;;;28.72;66.34;64978.19;5045217;27;20441;-78
2023/07/18 07:53:43;;;;;;;20.05;14.57;;;;;;;28.78;66.44;64989.75;5046398;28;20200;-81
2023/07/18 07:56:11;;;;;;;18.17;15.60;;;;;;;29.12;65.47;65025.47;5057554;28;20216;-81
2023/07/18 07:58:40;;;;;;;18.23;14.70;;;;;;;29.31;62.53;65039.66;5055505;27;20234;-80
2023/07/18 08:01:07;;;;;;;15.93;13.63;;;;;;;29.24;62.24;65038.09;5054918;28;20208;-79
2023/07/18 08:03:34;;;;;;;15.05;13.45;;;;;;;29.02;62.14;65009.72;5057983;27;20208;-79
2023/07/18 08:06:01;;;;;;;17.02;14.02;;;;;;;29.12;61.96;65028.09;5059479;28;20213;-80
2023/07/18 08:08:28;;;;;;;15.38;13.50;;;;;;;29.30;60.49;65038.63;5052509;27;20280;-81
2023/07/18 08:10:55;;;;;;;17.05;14.35;;;;;;;29.20;60.20;65033.88;5056719;28;20572;-79
2023/07/18 08:13:22;;;;;;;15.13;13.75;;;;;;;29.21;60.91;65037.56;5056088;27;20197;-81
2023/07/18 08:15:51;;;;;;;15.98;14.15;;;;;;;29.16;60.99;65029.69;5052826;28;20265;-81
2023/07/18 08:18:18;;;;;;;17.42;15.60;;;;;;;29.38;59.75;65047.03;5054420;28;20198;-80
2023/07/18 08:20:45;;;;;;;19.45;14.73;;;;;;;29.44;59.90;65064.34;5056139;28;20213;-82
2023/07/18 08:23:13;;;;;;;17.17;15.38;;;;;;;29.70;59.31;65088.53;5052734;27;20212;-83
2023/07/18 08:25:43;;;;;;;17.17;15.55;;;;;;;29.72;58.98;65090.66;5052850;27;20205;-82
2023/07/18 08:28:10;;;;;;;16.73;15.10;;;;;;;29.66;57.40;65079.06;5064393;27;20414;-83
2023/07/18 08:30:39;;;;;;;16.77;14.73;;;;;;;29.85;56.71;65101.16;5058716;27;20256;-81
2023/07/18 08:33:08;;;;;;;19.27;16.52;;;;;;;30.02;55.56;65113.78;5055252;27;20253;-83
2023/07/18 08:35:35;;;;;;;17.30;15.52;;;;;;;30.25;56.20;65141.13;5049404;27;20209;-83
2023/07/18 08:38:02;;;;;;;16.48;14.93;;;;;;;30.14;56.36;65134.81;5054442;27;20379;-82
2023/07/18 08:40:29;;;;;;;23.40;17.02;;;;;;;30.25;56.14;65137.97;5064223;27;20232;-81
2023/07/18 08:42:56;;;;;;;17.55;16.05;;;;;;;30.33;55.54;65146.91;5051183;27;20230;-80
2023/07/18 08:45:26;;;;;;;19.10;17.10;;;;;;;30.19;55.19;65136.91;5050159;27;20197;-80
2023/07/18 08:47:56;;;;;;;19.15;17.35;;;;;;;30.02;57.04;65116.94;5049406;27;20229;-80
2023/07/18 08:50:26;;;;;;;17.27;15.65;;;;;;;30.22;57.58;65137.97;5065816;27;20197;-80
2023/07/18 08:52:53;;;;;;;17.65;15.95;;;;;;;30.28;57.53;65146.94;5056978;27;20214;-80
2023/07/18 08:55:23;;;;;;;18.98;16.25;;;;;;;30.23;57.41;65139.03;5047950;27;20202;-79
2023/07/18 08:57:51;;;;;;;17.05;15.45;;;;;;;30.12;55.84;65126.91;5051050;27;20207;-81
2023/07/18 09:00:27;;;;;;;18.70;15.70;;;;;;;30.09;55.76;65129.03;5054002;28;20213;-81
2023/07/18 09:02:53;;;;;;;16.88;14.98;;;;;;;29.89;55.74;65100.63;5051177;28;20185;-81
2023/07/18 09:05:33;;;;;;;20.35;16.02;;;;;;;30.01;55.05;65115.88;5061731;28;20201;-82
2023/07/18 09:08:01;;;;;;;17.20;15.45;;;;;;;30.48;53.73;65167.41;5054577;28;20228;-82
2023/07/18 09:10:29;;;;;;;18.85;15.23;;;;;;;30.56;54.61;65178.97;5055299;28;20266;-83
2023/07/18 09:13:00;;;;;;;19.00;14.48;;;;;;;30.41;51.98;65162.69;5050366;28;20193;-79
2023/07/18 09:15:27;;;;;;;17.25;14.02;;;;;;;30.12;52.60;65124.28;5056117;28;20192;-79
2023/07/18 09:17:58;;;;;;;17.58;15.82;;;;;;;30.10;54.47;65122.72;5057199;28;20420;-80
2023/07/18 09:20:29;;;;;;;16.40;14.75;;;;;;;30.43;51.48;65160.06;5056178;28;20197;-80
2023/07/18 09:22:59;;;;;;;18.05;13.95;;;;;;;30.64;50.10;65179.00;5050340;27;20208;-83
2023/07/18 09:25:27;;;;;;;13.88;12.57;;;;;;;30.45;51.40;65164.28;5043085;28;20276;-83
2023/07/18 09:27:55;;;;;;;17.17;13.00;;;;;;;30.80;50.46;65203.75;5053860;27;20270;-79
2023/07/18 09:30:23;;;;;;;14.02;12.73;;;;;;;30.66;51.42;65183.19;5056571;27;20193;-78
2023/07/18 09:32:51;;;;;;;15.15;13.60;;;;;;;30.47;52.89;65164.28;5056955;28;20200;-80
2023/07/18 09:35:19;;;;;;;15.90;14.50;;;;;;;30.66;52.91;65189.00;5056410;27;20204;-80
2023/07/18 09:37:47;;;;;;;16.92;15.43;;;;;;;30.92;51.61;65215.81;5055102;27;20221;-81
2023/07/18 09:40:18;;;;;;;17.48;15.88;;;;;;;31.18;50.34;65235.81;5052597;28;20272;-81
2023/07/18 09:42:46;;;;;;;16.60;14.95;;;;;;;31.37;50.21;65261.09;5062316;27;20220;-80
2023/07/18 09:45:14;;;;;;;15.40;14.02;;;;;;;31.50;49.32;65274.25;5048180;27;20200;-81
2023/07/18 09:47:41;;;;;;;17.85;15.60;;;;;;;31.51;48.92;65272.66;5056174;27;20224;-83
2023/07/18 09:50:09;;;;;;;16.30;14.27;;;;;;;31.27;50.56;65250.03;5057572;27;20240;-81
2023/07/18 09:52:40;;;;;;;16.00;14.40;;;;;;;31.02;51.92;65221.09;5056337;27;20557;-79
2023/07/18 09:55:09;;;;;;;15.80;14.27;;;;;;;30.81;52.76;65201.63;5061428;27;20211;-81
2023/07/18 09:57:42;;;;;;;17.23;15.55;;;;;;;30.69;52.94;65192.13;5059679;28;20244;-79
2023/07/18 10:00:11;;;;;;;17.10;15.32;;;;;;;30.26;54.60;65139.03;5054931;27;20196;-79
2023/07/18 10:02:40;;;;;;;23.35;17.33;;;;;;;30.42;53.48;65156.38;5056385;28;20225;-81
2023/07/18 10:05:09;;;;;;;16.58;15.00;;;;;;;30.67;53.88;65184.78;5058695;27;20197;-82
2023/07/18 10:07:39;;;;;;;17.08;13.40;;;;;;;31.10;51.40;65235.28;5058450;27;20228;-80
2023/07/18 10:10:10;;;;;;;15.00;13.73;;;;;;;31.26;50.77;65248.97;5058502;28;20328;-83
2023/07/18 10:12:37;;;;;;;16.45;14.68;;;;;;;31.61;50.09;65285.81;5063843;27;20231;-81
2023/07/18 10:15:07;;;;;;;16.45;14.90;;;;;;;31.68;49.81;65290.56;5049732;28;20197;-81
2023/07/18 10:17:37;;;;;;;21.77;12.98;;;;;;;31.89;48.87;65310.03;5049106;27;20221;-78
2023/07/18 10:20:11;;;;;;;12.93;11.80;;;;;;;32.00;47.49;65323.72;5059045;28;20216;-79
2023/07/18 10:22:46;;;;;;;12.55;11.43;;;;;;;32.06;47.39;65333.22;5047876;27;20248;-81
2023/07/18 10:25:13;;;;;;;13.70;12.40;;;;;;;32.20;45.64;65353.22;5048399;28;20512;-80
2023/07/18 10:27:43;;;;;;;13.77;10.98;;;;;;;32.11;45.12;65340.56;5050410;28;20225;-81
2023/07/18 10:30:13;;;;;;;11.70;10.60;;;;;;;32.27;45.20;65355.31;5065344;27;20209;-79
2023/07/18 10:32:42;;;;;;;12.70;11.68;;;;;;;31.89;46.14;65315.31;5046473;28;20254;-78
2023/07/18 10:35:11;;;;;;;12.68;11.48;;;;;;;31.79;47.35;65304.75;5049100;28;20422;-80
2023/07/18 10:37:39;;;;;;;12.20;11.00;;;;;;;31.69;47.68;65294.22;5048302;28;20349;-79
2023/07/18 10:40:09;;;;;;;14.00;12.45;;;;;;;31.79;48.09;65302.13;5063265;27;20193;-82
2023/07/18 10:42:36;;;;;;;13.57;11.38;;;;;;;31.79;47.45;65304.25;5066276;27;20238;-77
2023/07/18 10:45:05;;;;;;;11.65;10.63;;;;;;;31.07;49.11;65226.34;5064399;28;20205;-77
2023/07/18 10:47:37;;;;;;;12.73;11.45;;;;;;;31.00;49.66;65222.13;5057998;28;20239;-76
2023/07/18 10:50:08;;;;;;;11.38;10.18;;;;;;;31.07;47.22;65226.88;5046711;27;20243;-79
2023/07/18 10:52:35;;;;;;;12.20;9.45;;;;;;;31.30;44.69;65250.53;5051450;28;20235;-80
2023/07/18 10:55:04;;;;;;;12.63;9.65;;;;;;;31.46;46.93;65270.03;5066930;28;20241;-79
2023/07/18 10:57:33;;;;;;;9.55;8.65;;;;;;;31.55;45.53;65279.50;5062311;28;20221;-80
2023/07/18 11:00:04;;;;;;;8.93;8.10;;;;;;;31.85;44.59;65308.44;5048102;28;20242;-80
2023/07/18 11:02:39;;;;;;;8.65;7.82;;;;;;;32.09;43.30;65330.56;5101055;27;20229;-80
2023/07/18 11:05:11;;;;;;;8.90;8.18;;;;;;;32.36;42.67;65362.16;5176621;27;20220;-82
2023/07/18 11:07:40;;;;;;;11.68;8.05;;;;;;;31.82;43.85;65304.75;5075436;27;20223;-79
2023/07/18 11:10:08;;;;;;;8.68;6.55;;;;;;;31.43;43.32;65270.03;5056674;28;20280;-82
2023/07/18 11:12:36;;;;;;;5.88;5.38;;;;;;;31.13;42.72;65230.53;5046291;28;20285;-79
2023/07/18 11:15:04;;;;;;;9.60;6.05;;;;;;;31.27;42.72;65247.41;5048973;28;20201;-80
2023/07/18 11:17:31;;;;;;;5.88;4.20;;;;;;;31.31;41.63;65254.22;5045904;28;20219;-79
2023/07/18 11:20:01;;;;;;;7.30;4.70;;;;;;;31.29;40.10;65247.38;5050854;28;20217;-79